Time;durP1;ratioP1;P1;durP2;ratioP2;P2;SDS_P1;SDS_P2;PMS_P1;PMS_P2;Temp;Humidity;BMP_temperature;BMP_pressure;BME280_temperature;BME280_humidity;BME280_pressure;Samples;Min_cycle;Max_cycle;Signal;HPM_P1;HPM_P2
2022/12/29 00:00:15;;;;;;;8.60;4.87;;;6.40;99.90;;;6.20;64.70;100036.13;5109595;28;20230;-67
2022/12/29 00:02:44;;;;;;;7.67;4.67;;;6.40;99.90;;;6.20;64.69;100028.47;5109391;28;20200;-68
2022/12/29 00:05:14;;;;;;;7.20;3.97;;;6.40;99.90;;;6.20;65.04;100028.47;5115623;28;20609;-66
2022/12/29 00:07:42;;;;;;;9.00;5.07;;;6.40;99.90;;;6.22;65.07;100028.47;5109331;28;20244;-68
2022/12/29 00:10:11;;;;;;;6.73;4.60;;;6.40;99.90;;;6.20;64.52;100032.72;5095341;28;20207;-68
2022/12/29 00:15:40;;;;;;;9.23;4.70;;;6.40;99.90;;;6.22;64.70;100029.34;5107175;28;20208;-68
2022/12/29 00:18:09;;;;;;;6.27;4.50;;;6.40;99.90;;;6.25;64.49;100023.38;5110227;28;20218;-68
2022/12/29 00:44:04;;;;;;;9.27;5.20;;;6.50;99.90;;;6.29;64.69;100015.72;5109063;28;20230;-67
2022/12/29 00:45:48;;;;;;;9.03;4.70;;;6.50;99.90;;;6.31;64.51;100022.56;5112492;28;20637;-67
2022/12/29 00:49:30;;;;;;;6.00;4.53;;;6.50;99.90;;;6.31;64.26;100025.13;5112843;28;20648;-67
2022/12/29 00:51:04;;;;;;;8.20;4.37;;;6.50;99.90;;;6.28;64.04;100024.25;5112732;28;20704;-67
2022/12/29 00:53:35;;;;;;;7.10;4.40;;;6.50;99.90;;;6.30;64.47;100026.81;5102023;28;20512;-69
2022/12/29 00:56:04;;;;;;;6.93;4.17;;;6.50;99.90;;;6.28;64.27;100015.72;5113406;28;20204;-69
2022/12/29 00:58:32;;;;;;;8.90;4.33;;;6.50;99.90;;;6.29;63.72;100015.72;5111958;28;20252;-67
2022/12/29 01:01:04;;;;;;;6.50;3.87;;;6.50;99.90;;;6.28;64.14;100014.00;5112213;28;20227;-67
2022/12/29 01:03:34;;;;;;;7.27;4.27;;;6.40;99.90;;;6.26;64.12;100012.31;5110719;28;20203;-67
2022/12/29 01:06:03;;;;;;;8.27;4.97;;;6.40;99.90;;;6.23;64.15;100008.03;5112242;28;20208;-68
2022/12/29 01:08:35;;;;;;;6.27;4.07;;;6.40;99.90;;;6.24;64.06;100002.03;5112750;28;20196;-67
2022/12/29 01:11:06;;;;;;;6.90;4.10;;;6.40;99.90;;;6.22;64.05;99993.53;5111021;28;20396;-67
2022/12/29 01:13:35;;;;;;;9.73;3.60;;;6.40;99.90;;;6.24;64.71;99984.13;5112678;28;20256;-68
2022/12/29 01:16:04;;;;;;;7.67;4.17;;;6.40;99.90;;;6.27;64.12;100001.22;5112954;28;20211;-68
2022/12/29 01:18:32;;;;;;;7.37;3.77;;;6.50;99.90;;;6.26;63.79;99990.13;5112541;28;20649;-68
2022/12/29 01:21:02;;;;;;;7.47;3.80;;;6.50;99.90;;;6.27;64.33;99991.84;5112840;28;20204;-68
2022/12/29 01:23:31;;;;;;;7.60;4.17;;;6.50;99.90;;;6.27;64.03;99979.03;5111351;28;20257;-68
2022/12/29 01:26:10;;;;;;;5.57;3.60;;;6.50;99.90;;;6.28;63.95;99978.19;5111395;28;20269;-67
2022/12/29 01:28:39;;;;;;;5.20;3.60;;;6.50;99.90;;;6.27;63.94;99979.03;5110928;28;20200;-68
2022/12/29 01:31:08;;;;;;;5.20;3.73;;;6.50;99.90;;;6.27;64.07;99976.47;5110694;28;20211;-67
2022/12/29 01:33:37;;;;;;;8.13;3.83;;;6.50;99.90;;;6.26;64.13;99974.78;5111461;28;20615;-68
2022/12/29 01:36:08;;;;;;;6.30;4.23;;;6.50;99.90;;;6.25;64.36;99977.31;5112379;28;20633;-67
2022/12/29 01:38:38;;;;;;;5.40;3.57;;;6.50;99.90;;;6.22;64.15;99972.19;5108732;28;20938;-67
2022/12/29 01:41:13;;;;;;;7.00;4.70;;;6.40;99.90;;;6.19;64.04;99965.38;5107502;28;20200;-67
2022/12/29 01:43:45;;;;;;;6.83;3.90;;;6.40;99.90;;;6.14;64.23;99967.03;5109805;28;20215;-67
2022/12/29 01:46:24;;;;;;;5.10;4.13;;;6.40;99.90;;;6.11;64.53;99954.22;5112399;28;20204;-68
2022/12/29 01:48:59;;;;;;;6.97;4.30;;;6.40;99.90;;;6.11;64.73;99958.47;5111501;28;20203;-68
2022/12/29 01:51:30;;;;;;;6.77;4.50;;;6.30;99.90;;;6.10;64.60;99952.50;5106600;28;20588;-68
2022/12/29 01:54:03;;;;;;;4.43;3.67;;;6.30;99.90;;;6.09;64.54;99957.63;5110737;28;20269;-67
2022/12/29 01:56:34;;;;;;;6.37;3.63;;;6.30;99.90;;;6.07;64.42;99956.75;5109299;28;20299;-67
2022/12/29 01:59:08;;;;;;;6.40;3.97;;;6.30;99.90;;;6.04;64.69;99953.34;5111294;28;20215;-67
2022/12/29 02:01:37;;;;;;;7.07;4.10;;;6.30;99.90;;;6.02;64.62;99959.28;5107270;28;20224;-67
2022/12/29 02:04:06;;;;;;;5.37;3.50;;;6.30;99.90;;;6.03;64.70;99949.06;5109599;28;20210;-67
2022/12/29 02:06:39;;;;;;;6.13;4.00;;;6.30;99.90;;;6.03;65.03;99953.31;5111958;28;20649;-69
2022/12/29 02:09:07;;;;;;;6.40;4.40;;;6.30;99.90;;;6.02;64.84;99946.50;5111369;28;20256;-66
2022/12/29 02:11:39;;;;;;;6.27;3.90;;;6.30;99.90;;;6.03;65.15;99935.41;5110890;28;20730;-65
2022/12/29 02:14:11;;;;;;;6.87;4.27;;;6.30;99.90;;;5.99;64.80;99934.56;5111813;28;20207;-66
2022/12/29 02:16:59;;;;;;;6.80;4.40;;;6.20;99.90;;;5.99;65.34;99943.94;5108216;28;20649;-67
2022/12/29 02:20:13;;;;;;;6.43;3.60;;;6.20;99.90;;;5.97;65.48;99953.31;5111778;28;20203;-68
2022/12/29 02:22:56;;;;;;;5.80;3.60;;;6.20;99.90;;;5.96;65.89;99954.13;5070629;28;20273;-67
2022/12/29 02:26:05;;;;;;;5.83;3.87;;;6.20;99.90;;;5.96;65.84;99946.47;5110987;28;20196;-67
2022/12/29 02:29:32;;;;;;;6.90;3.50;;;6.20;99.90;;;5.95;66.73;99955.84;5110078;28;20287;-67
2022/12/29 02:32:08;;;;;;;5.63;2.97;;;6.20;99.90;;;5.96;66.52;99946.47;5083873;27;20316;-69
2022/12/29 02:34:48;;;;;;;4.97;3.37;;;6.20;99.90;;;5.92;66.89;99949.81;5109743;28;20245;-68
2022/12/29 02:37:26;;;;;;;7.00;4.00;;;6.10;99.90;;;5.91;66.75;99948.97;5111151;28;20268;-68
2022/12/29 02:40:06;;;;;;;5.37;3.60;;;6.10;99.90;;;5.88;67.24;99950.66;5103547;28;20207;-68
2022/12/29 02:42:46;;;;;;;5.00;3.60;;;6.10;99.90;;;5.86;67.03;99948.09;5111081;28;20223;-68
2022/12/29 02:45:22;;;;;;;8.50;3.50;;;6.10;99.90;;;5.84;67.89;99959.16;5106432;28;20257;-67
2022/12/29 02:47:59;;;;;;;6.30;4.07;;;6.10;99.90;;;5.79;67.79;99957.44;5109607;28;20233;-67
2022/12/29 02:50:34;;;;;;;5.50;3.67;;;6.00;99.90;;;5.75;68.19;99953.16;5110090;28;20195;-68
2022/12/29 02:53:07;;;;;;;7.17;4.30;;;6.00;99.90;;;5.75;68.46;99963.38;5108770;28;20569;-68
2022/12/29 02:55:35;;;;;;;8.57;4.33;;;6.00;99.90;;;5.73;68.34;99959.94;5107505;28;20203;-69
2022/12/29 02:58:19;;;;;;;5.83;3.83;;;5.90;99.90;;;5.73;68.75;99971.88;5106348;28;20662;-68
2022/12/29 03:01:04;;;;;;;6.60;4.03;;;5.90;99.90;;;5.72;69.09;99965.91;5110016;28;20223;-68
2022/12/29 03:03:49;;;;;;;6.67;3.57;;;5.90;99.90;;;5.72;69.67;99971.00;5108445;28;20195;-68
2022/12/29 03:06:36;;;;;;;5.83;3.50;;;5.90;99.90;;;5.72;69.43;99965.91;5106960;28;20200;-66
2022/12/29 03:09:19;;;;;;;3.97;3.17;;;5.90;99.90;;;5.69;69.99;99962.47;5109242;28;20294;-68
2022/12/29 03:12:11;;;;;;;6.17;3.47;;;5.90;99.90;;;5.65;70.37;99968.41;5107906;28;20705;-69
2022/12/29 03:17:52;;;;;;;5.97;3.20;;;5.80;99.90;;;5.60;71.01;99964.94;5103234;28;20526;-69
2022/12/29 03:20:27;;;;;;;5.70;3.37;;;5.80;99.90;;;5.58;70.96;99955.56;5111123;28;20212;-68
2022/12/29 03:23:02;;;;;;;4.53;3.17;;;5.80;99.90;;;5.56;71.19;99949.63;5093146;28;20203;-67
2022/12/29 03:25:34;;;;;;;5.00;2.97;;;5.80;99.90;;;5.57;71.33;99945.34;5107519;28;20199;-67
2022/12/29 03:28:08;;;;;;;5.57;3.00;;;5.70;99.90;;;5.53;71.46;99938.50;5109602;28;20855;-67
2022/12/29 03:30:40;;;;;;;6.83;3.23;;;5.70;99.90;;;5.52;71.36;99941.88;5109947;28;20617;-66
2022/12/29 03:33:15;;;;;;;6.27;3.23;;;5.70;99.90;;;5.48;71.31;99937.59;5105740;28;20239;-67
2022/12/29 03:35:47;;;;;;;4.90;3.20;;;5.70;99.90;;;5.41;71.32;99916.25;5110000;28;20210;-68
2022/12/29 03:38:20;;;;;;;4.60;3.17;;;5.60;99.90;;;5.34;71.19;99906.88;5109299;28;20211;-67
2022/12/29 03:40:56;;;;;;;4.37;3.10;;;5.60;99.90;;;5.29;71.89;99898.28;5106281;28;20200;-69
2022/12/29 03:43:25;;;;;;;5.63;3.33;;;5.50;99.90;;;5.24;71.86;99877.84;5096751;28;20203;-68
2022/12/29 03:45:54;;;;;;;4.77;2.87;;;5.50;99.90;;;5.22;72.31;99876.94;5110016;28;20263;-67
2022/12/29 03:48:22;;;;;;;5.10;3.17;;;5.40;99.90;;;5.18;72.06;99859.91;5108701;28;20204;-67
2022/12/29 03:50:52;;;;;;;4.33;3.00;;;5.40;99.90;;;5.16;72.61;99894.81;5108096;28;20207;-67
2022/12/29 03:53:21;;;;;;;6.53;3.17;;;5.50;99.90;;;5.13;72.48;99902.44;5112245;28;20224;-67
2022/12/29 03:55:49;;;;;;;5.67;3.43;;;5.40;99.90;;;5.13;73.05;99902.44;5113235;28;20633;-67
2022/12/29 03:58:18;;;;;;;3.93;2.80;;;5.40;99.90;;;5.14;72.61;99887.97;5113693;28;20196;-67
2022/12/29 04:00:46;;;;;;;3.60;2.80;;;5.30;99.90;;;5.11;72.56;99888.78;5111824;28;20228;-66
2022/12/29 04:03:15;;;;;;;3.97;2.67;;;5.30;99.90;;;5.09;72.39;99887.94;5112949;28;20790;-67
2022/12/29 04:05:45;;;;;;;4.43;2.70;;;5.30;99.90;;;5.06;71.97;99903.22;5115140;28;20648;-68
2022/12/29 04:08:15;;;;;;;3.53;2.83;;;5.30;99.90;;;5.03;72.25;99881.06;5114681;28;20670;-68
2022/12/29 04:10:44;;;;;;;7.40;3.53;;;5.30;99.90;;;4.98;71.92;99881.88;5112503;28;20269;-68
2022/12/29 04:13:12;;;;;;;5.50;3.00;;;5.20;99.90;;;4.96;72.10;99888.66;5097845;28;20231;-68
2022/12/29 04:15:42;;;;;;;4.57;2.90;;;5.20;99.90;;;4.95;72.49;99876.75;5112366;28;20207;-68
2022/12/29 04:18:10;;;;;;;4.87;3.17;;;5.20;99.90;;;4.90;72.44;99873.28;5113434;28;20208;-68
2022/12/29 04:23:26;;;;;;;4.13;3.30;;;5.10;99.90;;;4.86;72.35;99882.66;5112877;28;20200;-67
2022/12/29 04:25:55;;;;;;;5.97;3.77;;;5.10;99.90;;;4.85;72.11;99888.56;5111234;28;20204;-67
2022/12/29 04:28:23;;;;;;;5.30;3.57;;;5.10;99.90;;;4.83;72.17;99893.69;5111523;28;20208;-67
2022/12/29 04:30:52;;;;;;;5.40;3.40;;;5.10;99.90;;;4.82;72.83;99883.44;5110566;28;20637;-67
2022/12/29 04:33:22;;;;;;;5.43;3.80;;;5.10;99.90;;;4.76;72.42;99884.25;5110607;28;20558;-67
2022/12/29 04:35:52;;;;;;;7.43;3.90;;;5.00;99.90;;;4.77;72.57;99875.75;5112464;28;20207;-67
2022/12/29 04:38:21;;;;;;;5.73;3.33;;;5.00;99.90;;;4.70;72.35;99858.66;5111463;28;20453;-67
2022/12/29 04:40:51;;;;;;;6.13;3.67;;;5.00;99.90;;;4.68;72.51;99856.97;5098873;28;20201;-69
2022/12/29 04:43:21;;;;;;;5.77;3.77;;;5.00;99.90;;;4.65;72.70;99862.88;5099614;28;20199;-68
2022/12/29 04:45:50;;;;;;;7.10;4.10;;;5.00;99.90;;;4.62;72.51;99862.84;5112340;28;20648;-67
2022/12/29 04:48:18;;;;;;;7.47;3.97;;;4.90;99.90;;;4.64;73.42;99866.28;5112465;28;20196;-69
2022/12/29 04:50:49;;;;;;;7.10;3.83;;;4.90;99.90;;;4.65;72.87;99862.03;5110698;28;20594;-68
2022/12/29 04:53:18;;;;;;;6.00;3.77;;;4.90;99.90;;;4.65;73.31;99862.03;5112141;28;20216;-67
2022/12/29 04:55:52;;;;;;;6.87;4.17;;;4.90;99.90;;;4.64;73.12;99875.59;5113279;28;20223;-66
2022/12/29 04:58:21;;;;;;;5.93;3.97;;;4.90;99.90;;;4.65;73.18;99867.97;5113207;28;20609;-69
2022/12/29 05:00:51;;;;;;;8.00;4.13;;;4.90;99.90;;;4.65;73.11;99842.47;5110548;28;20680;-69
2022/12/29 05:03:20;;;;;;;6.73;4.03;;;4.90;99.90;;;4.64;72.55;99850.97;5110923;28;20219;-68
2022/12/29 05:05:48;;;;;;;9.10;4.27;;;4.90;99.90;;;4.62;72.32;99839.88;5112645;28;20207;-67
2022/12/29 05:08:17;;;;;;;8.53;4.27;;;4.90;99.90;;;4.65;72.37;99851.81;5113060;28;20623;-68
2022/12/29 05:10:53;;;;;;;6.70;3.80;;;4.80;99.90;;;4.62;72.14;99846.69;5113052;28;20195;-68
2022/12/29 05:13:22;;;;;;;7.40;3.97;;;4.90;99.90;;;4.60;71.39;99839.00;5098754;28;20707;-68
2022/12/29 05:15:52;;;;;;;6.67;4.40;;;4.90;99.90;;;4.60;71.48;99839.00;5109459;28;20262;-67
2022/12/29 05:18:21;;;;;;;9.03;5.07;;;4.90;99.90;;;4.59;71.70;99827.09;5106687;28;20322;-67
2022/12/29 05:20:50;;;;;;;9.03;4.30;;;4.90;99.90;;;4.60;71.58;99841.53;5111878;28;20212;-68
2022/12/29 05:23:18;;;;;;;7.23;4.20;;;4.90;99.90;;;4.59;71.25;99838.13;5112982;28;20212;-67
2022/12/29 05:25:46;;;;;;;7.27;4.40;;;4.90;99.90;;;4.57;71.28;99831.34;5113271;28;20212;-67
2022/12/29 05:28:16;;;;;;;8.57;4.93;;;4.90;99.90;;;4.58;71.35;99827.94;5112583;28;20748;-68
2022/12/29 05:30:48;;;;;;;8.53;4.87;;;4.90;99.90;;;4.57;70.91;99827.09;5111101;28;20206;-67
2022/12/29 05:33:17;;;;;;;8.60;5.07;;;4.80;99.90;;;4.56;71.26;99816.84;5110481;28;20260;-67
2022/12/29 05:35:46;;;;;;;8.57;4.50;;;4.80;99.90;;;4.55;70.89;99799.84;5108132;28;20570;-67
2022/12/29 05:38:14;;;;;;;8.20;4.97;;;4.80;99.90;;;4.52;70.69;99817.66;5110493;28;20208;-68
2022/12/29 05:40:43;;;;;;;8.73;4.93;;;4.80;99.90;;;4.50;70.42;99806.59;5099854;28;20243;-68
2022/12/29 05:43:12;;;;;;;7.40;4.87;;;4.80;99.90;;;4.47;70.52;99804.88;5113018;28;20216;-67
2022/12/29 05:45:41;;;;;;;9.77;5.03;;;4.80;99.90;;;4.50;70.67;99806.59;5111745;28;20249;-68
2022/12/29 05:48:10;;;;;;;12.80;5.50;;;4.80;99.90;;;4.51;70.25;99814.25;5098148;28;20586;-68
2022/12/29 05:50:38;;;;;;;9.33;5.20;;;4.80;99.90;;;4.53;70.36;99819.41;5110350;27;20272;-68
2022/12/29 05:53:07;;;;;;;8.50;5.13;;;4.80;99.90;;;4.52;70.00;99804.91;5111200;28;20212;-68
2022/12/29 05:55:35;;;;;;;10.40;5.63;;;4.80;99.90;;;4.54;69.92;99803.25;5109826;28;20498;-67
2022/12/29 05:58:04;;;;;;;7.63;4.87;;;4.80;99.90;;;4.54;69.28;99803.25;5112055;28;20233;-68
2022/12/29 06:00:32;;;;;;;7.03;4.60;;;4.80;99.90;;;4.53;69.26;99817.69;5107114;28;20231;-68
2022/12/29 06:03:02;;;;;;;8.27;4.87;;;4.80;99.90;;;4.55;69.37;99818.53;5109089;28;20196;-67
2022/12/29 06:05:31;;;;;;;9.17;5.20;;;4.80;99.90;;;4.55;69.11;99810.88;5109778;28;20212;-67
2022/12/29 06:07:59;;;;;;;8.73;4.83;;;4.80;99.90;;;4.58;69.21;99804.97;5110749;28;20726;-66
2022/12/29 06:10:28;;;;;;;5.97;3.83;;;4.80;99.90;;;4.58;68.56;99810.06;5105932;28;20657;-68
2022/12/29 06:12:56;;;;;;;9.43;4.73;;;4.80;99.90;;;4.57;68.66;99803.28;5110284;28;20233;-67
2022/12/29 06:15:25;;;;;;;10.33;4.93;;;4.90;99.90;;;4.58;68.58;99810.06;5109912;28;20255;-68
2022/12/29 06:17:53;;;;;;;8.37;4.20;;;4.90;99.90;;;4.58;68.65;99804.97;5111217;28;20575;-68
2022/12/29 06:20:23;;;;;;;9.47;5.70;;;4.80;99.90;;;4.59;68.58;99809.22;5108309;28;20241;-67
2022/12/29 06:22:51;;;;;;;7.70;4.27;;;4.90;99.90;;;4.62;68.47;99806.69;5110615;28;20200;-67
2022/12/29 06:25:20;;;;;;;7.93;4.93;;;4.90;99.90;;;4.64;68.27;99805.03;5107810;27;20664;-68
2022/12/29 06:27:48;;;;;;;7.30;4.63;;;4.90;99.90;;;4.64;68.26;99793.94;5099668;28;20648;-67
2022/12/29 06:30:17;;;;;;;7.07;4.67;;;4.90;99.90;;;4.65;68.21;99795.69;5109541;28;20266;-68
2022/12/29 06:32:46;;;;;;;6.40;4.57;;;4.90;99.90;;;4.68;67.87;99808.47;5108510;28;20235;-66
2022/12/29 06:35:15;;;;;;;10.03;5.20;;;5.00;99.90;;;4.73;68.00;99819.56;5111929;28;20232;-68
2022/12/29 06:37:45;;;;;;;7.67;4.40;;;5.00;99.90;;;4.75;68.39;99813.63;5106499;28;20220;-67
2022/12/29 06:40:14;;;;;;;5.87;4.33;;;5.00;99.90;;;4.76;67.60;99820.44;5111272;28;20278;-67
2022/12/29 06:42:42;;;;;;;7.67;4.27;;;5.00;99.90;;;4.79;68.15;99815.38;5109959;28;20662;-68
2022/12/29 06:45:11;;;;;;;8.43;4.63;;;5.10;99.90;;;4.81;67.63;99823.88;5107743;28;20628;-67
2022/12/29 06:47:40;;;;;;;8.37;4.63;;;5.10;99.90;;;4.84;67.86;99828.16;5108673;28;20596;-69
2022/12/29 06:50:09;;;;;;;6.93;4.40;;;5.00;99.90;;;4.85;67.54;99828.16;5101423;28;20575;-67
2022/12/29 06:52:38;;;;;;;6.53;4.00;;;5.10;99.90;;;4.87;67.79;99822.22;5111732;28;20227;-66
2022/12/29 06:55:09;;;;;;;8.80;4.20;;;5.10;99.90;;;4.87;67.52;99828.19;5108801;28;20698;-66
2022/12/29 06:57:37;;;;;;;10.27;4.47;;;5.20;99.90;;;4.91;67.51;99826.50;5111084;28;20214;-68
2022/12/29 07:00:07;;;;;;;7.23;4.27;;;5.20;99.90;;;4.92;67.38;99820.56;5112603;28;20235;-69
2022/12/29 07:02:36;;;;;;;6.10;4.17;;;5.20;99.90;;;4.94;67.06;99809.53;5118348;28;20200;-69
2022/12/29 07:05:07;;;;;;;7.57;4.63;;;5.20;99.90;;;4.97;66.97;99808.66;5115038;28;20211;-67
2022/12/29 07:07:36;;;;;;;6.83;4.00;;;5.20;99.90;;;5.00;67.01;99798.47;5113677;28;20696;-68
2022/12/29 07:10:07;;;;;;;6.90;4.53;;;5.20;99.90;;;5.01;66.45;99816.38;5106675;28;20204;-70
2022/12/29 07:12:36;;;;;;;7.47;4.37;;;5.30;99.90;;;5.01;66.09;99802.78;5098800;28;20196;-70
2022/12/29 07:15:05;;;;;;;7.17;4.20;;;5.30;99.90;;;5.03;65.98;99801.91;5110639;28;20239;-71
2022/12/29 07:17:33;;;;;;;5.87;3.80;;;5.30;99.90;;;5.06;66.00;99801.94;5107340;28;20210;-70
2022/12/29 07:20:02;;;;;;;8.37;4.63;;;5.30;99.90;;;5.09;65.73;99806.22;5110077;28;20276;-70
2022/12/29 07:22:31;;;;;;;7.73;4.00;;;5.40;99.90;;;5.11;65.58;99807.06;5108244;28;20293;-71
2022/12/29 07:24:59;;;;;;;7.70;3.97;;;5.40;99.90;;;5.11;65.81;99803.66;5109079;28;20269;-69
2022/12/29 07:27:29;;;;;;;6.50;3.80;;;5.40;99.90;;;5.14;65.29;99801.13;5109646;28;20293;-69
2022/12/29 07:29:58;;;;;;;6.60;3.77;;;5.40;99.90;;;5.14;65.17;99790.91;5112931;28;20231;-71
2022/12/29 07:32:26;;;;;;;8.00;3.90;;;5.50;99.90;;;5.17;65.36;99796.91;5105575;28;20235;-71
2022/12/29 07:34:55;;;;;;;7.77;4.37;;;5.50;99.90;;;5.18;65.05;99792.66;5097666;28;20236;-72
2022/12/29 07:37:24;;;;;;;6.00;3.90;;;5.50;99.90;;;5.20;64.92;99786.72;5104811;28;20688;-70
2022/12/29 07:39:52;;;;;;;6.77;4.00;;;5.50;99.90;;;5.23;65.17;99791.84;5105134;28;20199;-69
2022/12/29 07:42:21;;;;;;;6.27;3.97;;;5.50;99.90;;;5.26;65.21;99788.44;5107427;28;20223;-71
2022/12/29 07:44:51;;;;;;;6.93;4.00;;;5.60;99.90;;;5.27;64.58;99775.69;5107492;28;20563;-69
2022/12/29 07:47:19;;;;;;;7.70;3.73;;;5.60;99.90;;;5.35;64.68;99780.84;5107339;28;20211;-70
2022/12/29 07:49:47;;;;;;;7.17;4.10;;;5.60;99.90;;;5.40;64.48;99781.69;5107805;28;20196;-69
2022/12/29 07:52:16;;;;;;;4.27;3.47;;;5.70;99.90;;;5.42;64.59;99781.72;5108465;28;20208;-70
2022/12/29 07:54:45;;;;;;;5.37;3.83;;;5.70;99.90;;;5.45;64.08;99786.81;5100144;28;20213;-72
2022/12/29 07:57:13;;;;;;;8.17;3.93;;;5.70;99.90;;;5.47;64.48;99785.16;5113037;28;20212;-71
2022/12/29 07:59:41;;;;;;;6.47;4.27;;;5.70;99.90;;;5.51;64.10;99776.66;5108469;28;20276;-67
2022/12/29 08:02:13;;;;;;;6.30;3.83;;;5.80;99.90;;;5.53;64.49;99772.41;5108642;28;20269;-72
2022/12/29 08:04:41;;;;;;;7.03;4.03;;;5.80;99.90;;;5.55;64.10;99776.66;5104775;28;20615;-78
2022/12/29 08:07:10;;;;;;;5.10;3.60;;;5.80;99.90;;;5.62;64.35;99771.56;5114301;28;20211;-70
2022/12/29 08:09:38;;;;;;;5.80;3.63;;;5.90;99.90;;;5.67;64.15;99768.22;5101003;28;20203;-72
2022/12/29 08:12:10;;;;;;;5.03;4.03;;;5.90;99.90;;;5.74;63.84;99774.16;5108834;28;20552;-71
2022/12/29 08:14:38;;;;;;;6.07;3.43;;;6.00;99.90;;;5.80;63.55;99769.09;5109096;28;20690;-68
2022/12/29 08:17:07;;;;;;;6.13;3.70;;;6.10;99.90;;;5.85;63.38;99761.44;5104829;28;20277;-71
2022/12/29 08:19:36;;;;;;;6.23;4.27;;;6.10;99.90;;;5.92;62.75;99775.94;5110355;28;20191;-70
2022/12/29 08:22:05;;;;;;;4.83;3.73;;;6.20;99.90;;;5.96;62.75;99760.63;5105812;28;20200;-68
2022/12/29 08:24:33;;;;;;;5.17;3.70;;;6.20;99.90;;;6.02;62.76;99764.94;5102301;28;20201;-70
2022/12/29 08:27:02;;;;;;;6.20;3.50;;;6.30;99.90;;;6.09;62.94;99758.97;5106201;28;20207;-74
2022/12/29 08:29:45;;;;;;;5.77;3.50;;;6.40;99.90;;;6.15;62.05;99770.91;5110497;28;20191;-69
2022/12/29 08:32:14;;;;;;;8.77;3.90;;;6.40;99.90;;;6.21;62.18;99765.81;5107102;28;20652;-71
2022/12/29 08:34:43;;;;;;;6.83;3.43;;;6.50;99.90;;;6.24;61.81;99761.56;5100254;28;20787;-70
2022/12/29 08:37:12;;;;;;;8.07;3.77;;;6.50;99.90;;;6.32;61.62;99766.69;5103889;28;20223;-69
2022/12/29 08:39:41;;;;;;;5.37;3.70;;;6.60;99.90;;;6.39;61.44;99773.50;5108023;28;20222;-70
2022/12/29 08:42:09;;;;;;;5.13;3.50;;;6.70;99.90;;;6.48;60.99;99772.66;5110164;28;20204;-69
2022/12/29 08:44:37;;;;;;;6.00;3.37;;;6.70;99.90;;;6.53;61.29;99782.06;5108604;28;20211;-76
2022/12/29 08:47:06;;;;;;;5.83;3.47;;;6.80;99.90;;;6.60;60.71;99787.19;5109859;28;20204;-71
2022/12/29 08:49:35;;;;;;;5.93;3.60;;;6.90;99.90;;;6.63;60.47;99790.59;5120138;28;20304;-74
2022/12/29 08:52:05;;;;;;;6.77;3.90;;;6.90;99.90;;;6.68;59.83;99788.03;5114008;28;20219;-72
2022/12/29 08:54:34;;;;;;;5.87;3.40;;;6.90;99.90;;;6.69;60.49;99771.81;5118974;28;20203;-73
2022/12/29 08:57:03;;;;;;;6.50;3.83;;;7.00;99.90;;;6.72;60.24;99780.34;5104827;28;20269;-74
2022/12/29 08:59:31;;;;;;;6.50;3.63;;;7.00;99.90;;;6.75;59.89;99775.22;5122728;28;20220;-72
2022/12/29 09:02:01;;;;;;;5.67;3.50;;;7.00;99.90;;;6.81;59.81;99771.78;5114834;28;20667;-71
2022/12/29 09:04:30;;;;;;;4.67;3.37;;;7.10;99.90;;;6.86;60.11;99766.69;5106461;28;20216;-71
2022/12/29 09:06:58;;;;;;;4.03;3.30;;;7.20;99.90;;;6.93;59.47;99782.06;5110138;28;20554;-70
2022/12/29 09:09:28;;;;;;;6.47;3.50;;;7.20;99.90;;;6.99;58.92;99778.63;5109964;28;20200;-68
2022/12/29 09:11:57;;;;;;;6.23;3.90;;;7.20;99.90;;;7.04;58.70;99776.06;5106230;28;20638;-69
2022/12/29 09:14:25;;;;;;;5.87;3.90;;;7.30;99.90;;;7.07;58.97;99776.03;5111316;28;20261;-68
2022/12/29 09:19:42;;;;;;;6.80;3.23;;;7.40;99.90;;;7.20;59.16;99770.91;5100069;28;20661;-71
2022/12/29 09:22:10;;;;;;;5.63;3.73;;;7.50;99.90;;;7.28;59.35;99762.34;5111207;28;20208;-70
2022/12/29 09:24:40;;;;;;;9.93;3.90;;;7.50;99.90;;;7.33;58.24;99769.16;5106721;28;20204;-70
2022/12/29 09:27:08;;;;;;;5.83;3.60;;;7.60;99.90;;;7.40;58.21;99764.84;5105950;28;20208;-68
2022/12/29 09:29:37;;;;;;;5.57;3.50;;;7.60;99.90;;;7.45;58.31;99764.00;5101720;28;20624;-69
2022/12/29 09:32:05;;;;;;;5.67;3.30;;;7.70;99.90;;;7.50;58.01;99759.69;5110313;28;20199;-69
2022/12/29 09:34:35;;;;;;;6.10;4.17;;;7.80;99.90;;;7.55;57.74;99761.38;5109063;28;20656;-67
2022/12/29 09:37:04;;;;;;;6.67;3.90;;;7.80;99.90;;;7.56;58.69;99748.56;5111523;28;20228;-68
2022/12/29 09:39:32;;;;;;;4.77;3.30;;;7.80;99.90;;;7.55;58.31;99764.81;5109110;28;20215;-69
2022/12/29 09:42:13;;;;;;;5.30;3.53;;;7.80;99.90;;;7.56;58.06;99766.53;5110055;28;20747;-68
2022/12/29 09:44:57;;;;;;;6.10;3.23;;;7.80;99.90;;;7.53;57.84;99753.72;5109930;28;20192;-70
2022/12/29 09:47:27;;;;;;;4.90;3.37;;;7.80;99.90;;;7.53;58.00;99745.16;5110813;28;20760;-70
2022/12/29 09:50:00;;;;;;;5.83;3.40;;;7.70;99.90;;;7.56;59.05;99746.00;5106165;28;20208;-68
2022/12/29 09:52:35;;;;;;;5.60;3.47;;;7.80;99.90;;;7.59;58.36;99740.03;5100079;28;20613;-69
2022/12/29 09:55:10;;;;;;;8.07;4.10;;;7.90;99.90;;;7.64;58.24;99739.13;5111295;28;20203;-69
2022/12/29 09:57:49;;;;;;;5.23;3.30;;;7.90;99.90;;;7.65;58.03;99738.25;5109897;28;20207;-69
2022/12/29 10:00:20;;;;;;;6.47;3.23;;;7.90;99.90;;;7.63;57.55;99742.56;5110676;28;20223;-69
2022/12/29 10:02:55;;;;;;;6.87;3.20;;;7.90;99.90;;;7.62;57.25;99740.88;5111003;28;20204;-68
2022/12/29 10:05:43;;;;;;;8.73;3.20;;;7.90;99.90;;;7.59;57.19;99728.06;5109363;28;20195;-69
2022/12/29 10:08:28;;;;;;;6.53;3.40;;;7.80;99.90;;;7.58;58.17;99723.75;5108162;28;20595;-68
2022/12/29 10:11:00;;;;;;;6.07;3.63;;;7.80;99.90;;;7.59;57.67;99720.38;5108332;28;20203;-69
2022/12/29 10:13:43;;;;;;;4.93;3.30;;;7.80;99.90;;;7.61;57.72;99728.88;5103814;28;20207;-69
2022/12/29 10:16:19;;;;;;;4.93;3.30;;;7.80;99.90;;;7.59;57.65;99719.50;5103855;28;20587;-71
2022/12/29 10:19:13;;;;;;;5.60;3.30;;;7.80;99.90;;;7.61;58.08;99716.06;5103672;28;20203;-71
2022/12/29 10:21:58;;;;;;;4.97;3.30;;;7.80;99.90;;;7.62;57.52;99715.22;5105980;28;20200;-67
2022/12/29 10:24:30;;;;;;;7.77;3.73;;;7.80;99.90;;;7.65;58.01;99704.94;5102383;28;20195;-69
2022/12/29 10:27:00;;;;;;;5.37;3.60;;;7.90;99.90;;;7.68;58.42;99720.31;5105668;28;20208;-69
2022/12/29 10:29:38;;;;;;;9.23;3.60;;;7.90;99.90;;;7.68;57.69;99710.03;5110386;28;20243;-69
2022/12/29 10:32:15;;;;;;;8.57;4.03;;;7.90;99.90;;;7.70;57.55;99713.47;5108763;28;20199;-70
2022/12/29 10:34:52;;;;;;;6.40;3.83;;;7.90;99.90;;;7.70;57.28;99716.03;5104694;27;20495;-68
2022/12/29 10:37:35;;;;;;;5.63;3.03;;;7.90;99.90;;;7.69;57.51;99704.06;5107803;28;20219;-70
2022/12/29 10:40:20;;;;;;;6.87;3.37;;;7.90;99.90;;;7.72;57.15;99701.47;5100712;28;20546;-70
2022/12/29 10:42:53;;;;;;;5.50;3.53;;;7.90;99.90;;;7.73;57.49;99710.91;5108303;28;20249;-69
2022/12/29 10:45:28;;;;;;;7.77;3.63;;;8.00;99.90;;;7.77;57.58;99700.59;5108884;28;20196;-70
2022/12/29 10:48:06;;;;;;;6.80;4.00;;;8.00;99.90;;;7.79;57.72;99698.88;5110523;28;20238;-68
2022/12/29 10:50:34;;;;;;;8.57;5.50;;;8.00;99.90;;;7.84;57.17;99704.81;5105445;27;20574;-69
2022/12/29 10:53:06;;;;;;;5.67;3.40;;;8.10;99.90;;;7.92;56.54;99696.25;5109363;28;20238;-68
2022/12/29 10:55:39;;;;;;;5.10;3.80;;;8.10;99.90;;;7.98;57.24;99703.03;5111262;28;20204;-69
2022/12/29 10:58:12;;;;;;;6.73;4.17;;;8.20;99.90;;;7.98;56.42;99698.75;5110640;28;20297;-67
2022/12/29 11:00:44;;;;;;;6.60;3.70;;;8.20;99.90;;;8.01;57.35;99694.47;5110573;28;20227;-69
2022/12/29 11:03:49;;;;;;;6.83;4.00;;;8.20;99.90;;;8.05;56.91;99693.59;5108489;28;20204;-68
2022/12/29 11:06:24;;;;;;;7.70;3.47;;;8.30;99.90;;;8.09;56.25;99685.84;5107977;28;20244;-69
2022/12/29 11:08:58;;;;;;;5.33;3.20;;;8.40;99.90;;;8.14;57.07;99688.41;5099457;28;20203;-69
2022/12/29 11:11:33;;;;;;;6.13;3.33;;;8.40;99.90;;;8.15;57.12;99688.38;5107805;28;20187;-69
2022/12/29 11:14:12;;;;;;;5.27;3.23;;;8.40;99.90;;;8.22;57.21;99695.16;5107546;28;20266;-68
2022/12/29 11:16:44;;;;;;;5.60;3.47;;;8.50;99.90;;;8.22;56.44;99687.47;5110288;28;20219;-68
2022/12/29 11:19:25;;;;;;;5.07;3.53;;;8.50;99.90;;;8.25;56.88;99676.34;5107269;28;20203;-70
2022/12/29 11:21:54;;;;;;;5.27;3.60;;;8.50;99.90;;;8.26;56.62;99679.75;5107396;28;20195;-67
2022/12/29 11:24:27;;;;;;;4.43;3.37;;;8.50;99.90;;;8.28;55.67;99683.97;5107803;28;20606;-69
2022/12/29 11:27:09;;;;;;;5.23;3.47;;;8.50;99.90;;;8.29;56.21;99674.59;5107371;28;20720;-69